Decoded Metar for KCBM (COLOMBUS in MS, USA) (IATA:CBM) | Meteo·Mobile Aviation Weather
aviador You're here:

KCBM Decoded Metar

COLOMBUS in MS, USA
Report Time2018-11-19 08:56:00
UTC Time2018-11-19 09:06:58
Flight Rules vfr VFR
WindCalm
Visibility9999 m
Phenomena:N/A
Clouds:Overcast 170 Hf
Expected CloudBase > 400 ft AGL from Temp-Dew spread
Ceiling17,000 ft
Temp06°C (ISA -9)
Dew Point05°C (93% RH)
AAT4.9°C
QNH1020 hPa
Density Alt-932 ft
Elevation220 ft
Report Wrong Elevation
Raw Report
KCBM 190856Z AUTO 00000KT 10SM OVC170 06/05 A3013 RMK AO2 SLP206
T00580048 57005 $=

Extra information for KCBM:More info

Metar Taf Metar & Taf Last 4 Metars F.Rules Stats Wind Profile Meteogram Temp Stats Airport Information Weather charts Add Link Nearby VenuesMetar ALERT Operation Metar Decoded Social comments

AIRNAV info for KCBM